sensor_id;sensor_type;location;lat;lon;timestamp;pressure;altitude;pressure_sealevel;temperature;humidity
73016;BME280;61893;50.074;14.440;2022-10-30T00:01:17;99075.50;;;11.49;100.00
73016;BME280;61893;50.074;14.440;2022-10-30T00:03:51;99070.59;;;11.44;100.00
73016;BME280;61893;50.074;14.440;2022-10-30T00:09:48;99063.34;;;11.37;100.00
73016;BME280;61893;50.074;14.440;2022-10-30T00:15:29;99067.97;;;11.35;100.00
73016;BME280;61893;50.074;14.440;2022-10-30T00:21:17;99068.13;;;11.33;100.00
73016;BME280;61893;50.074;14.440;2022-10-30T00:29:50;99066.25;;;11.43;100.00
73016;BME280;61893;50.074;14.440;2022-10-30T00:32:31;99063.41;;;11.55;100.00
73016;BME280;61893;50.074;14.440;2022-10-30T00:35:16;99061.44;;;11.57;100.00
73016;BME280;61893;50.074;14.440;2022-10-30T00:38:06;99066.03;;;11.64;100.00
73016;BME280;61893;50.074;14.440;2022-10-30T00:40:49;99060.69;;;11.64;100.00
73016;BME280;61893;50.074;14.440;2022-10-30T00:55:32;99058.13;;;11.45;100.00
73016;BME280;61893;50.074;14.440;2022-10-30T00:58:01;99058.97;;;11.45;100.00
73016;BME280;61893;50.074;14.440;2022-10-30T01:00:28;99057.25;;;11.54;100.00
73016;BME280;61893;50.074;14.440;2022-10-30T01:02:56;99055.00;;;11.49;100.00
73016;BME280;61893;50.074;14.440;2022-10-30T01:05:24;99057.09;;;11.56;100.00
73016;BME280;61893;50.074;14.440;2022-10-30T01:07:51;99053.94;;;11.70;100.00
73016;BME280;61893;50.074;14.440;2022-10-30T01:10:17;99049.75;;;11.67;100.00
73016;BME280;61893;50.074;14.440;2022-10-30T01:12:44;99052.56;;;11.66;100.00
73016;BME280;61893;50.074;14.440;2022-10-30T01:15:12;99051.75;;;11.65;100.00
73016;BME280;61893;50.074;14.440;2022-10-30T01:17:42;99055.25;;;11.66;99.40
73016;BME280;61893;50.074;14.440;2022-10-30T01:23:05;99049.03;;;11.38;100.00
73016;BME280;61893;50.074;14.440;2022-10-30T01:28:19;99049.75;;;11.20;100.00
73016;BME280;61893;50.074;14.440;2022-10-30T01:38:40;99047.84;;;11.50;100.00
73016;BME280;61893;50.074;14.440;2022-10-30T01:41:07;99041.44;;;11.43;99.69
73016;BME280;61893;50.074;14.440;2022-10-30T01:43:34;99035.44;;;11.21;100.00
73016;BME280;61893;50.074;14.440;2022-10-30T02:00:04;99024.03;;;10.92;100.00
73016;BME280;61893;50.074;14.440;2022-10-30T02:02:30;99021.09;;;10.75;100.00
73016;BME280;61893;50.074;14.440;2022-10-30T02:04:58;99017.47;;;10.67;100.00
73016;BME280;61893;50.074;14.440;2022-10-30T02:07:24;99004.75;;;10.70;100.00
73016;BME280;61893;50.074;14.440;2022-10-30T02:09:51;99001.34;;;10.78;100.00
73016;BME280;61893;50.074;14.440;2022-10-30T02:12:19;99008.09;;;10.82;100.00
73016;BME280;61893;50.074;14.440;2022-10-30T02:14:48;99005.28;;;10.74;100.00
73016;BME280;61893;50.074;14.440;2022-10-30T02:17:15;99009.78;;;10.73;100.00
73016;BME280;61893;50.074;14.440;2022-10-30T02:19:41;99018.47;;;10.66;100.00
73016;BME280;61893;50.074;14.440;2022-10-30T02:22:07;99020.00;;;10.58;100.00
73016;BME280;61893;50.074;14.440;2022-10-30T02:24:33;99029.25;;;10.54;100.00
73016;BME280;61893;50.074;14.440;2022-10-30T02:26:59;99026.03;;;10.60;100.00
73016;BME280;61893;50.074;14.440;2022-10-30T02:29:25;99022.66;;;10.58;100.00
73016;BME280;61893;50.074;14.440;2022-10-30T02:31:52;99020.00;;;10.49;100.00
73016;BME280;61893;50.074;14.440;2022-10-30T02:34:18;99023.94;;;10.54;100.00
73016;BME280;61893;50.074;14.440;2022-10-30T02:36:43;99024.63;;;10.47;100.00
73016;BME280;61893;50.074;14.440;2022-10-30T02:39:09;99022.78;;;10.37;100.00
73016;BME280;61893;50.074;14.440;2022-10-30T02:41:36;99015.81;;;10.36;100.00
73016;BME280;61893;50.074;14.440;2022-10-30T02:44:02;99022.38;;;10.42;100.00
73016;BME280;61893;50.074;14.440;2022-10-30T02:46:28;99020.97;;;10.57;100.00
73016;BME280;61893;50.074;14.440;2022-10-30T02:48:54;99027.69;;;10.71;100.00
73016;BME280;61893;50.074;14.440;2022-10-30T02:51:19;99027.28;;;10.76;100.00
73016;BME280;61893;50.074;14.440;2022-10-30T02:53:45;99030.50;;;10.70;100.00
73016;BME280;61893;50.074;14.440;2022-10-30T02:56:13;99028.41;;;10.64;100.00
73016;BME280;61893;50.074;14.440;2022-10-30T02:58:40;99029.38;;;10.53;100.00
73016;BME280;61893;50.074;14.440;2022-10-30T03:01:11;99027.00;;;10.50;100.00
73016;BME280;61893;50.074;14.440;2022-10-30T03:03:38;99026.16;;;10.49;100.00
73016;BME280;61893;50.074;14.440;2022-10-30T03:06:06;99019.16;;;10.29;100.00
73016;BME280;61893;50.074;14.440;2022-10-30T03:08:33;99016.50;;;10.29;100.00
73016;BME280;61893;50.074;14.440;2022-10-30T03:11:06;99015.34;;;10.22;100.00
73016;BME280;61893;50.074;14.440;2022-10-30T03:13:34;99014.34;;;10.23;100.00
73016;BME280;61893;50.074;14.440;2022-10-30T03:16:06;99023.34;;;10.31;100.00
73016;BME280;61893;50.074;14.440;2022-10-30T03:18:33;99019.44;;;10.35;100.00
73016;BME280;61893;50.074;14.440;2022-10-30T03:21:00;99023.44;;;10.20;100.00
73016;BME280;61893;50.074;14.440;2022-10-30T03:23:27;99025.28;;;10.20;100.00
73016;BME280;61893;50.074;14.440;2022-10-30T03:25:54;99020.34;;;10.05;100.00
73016;BME280;61893;50.074;14.440;2022-10-30T03:28:22;99024.16;;;10.22;100.00
73016;BME280;61893;50.074;14.440;2022-10-30T03:30:49;99022.19;;;10.24;100.00
73016;BME280;61893;50.074;14.440;2022-10-30T03:33:19;99017.97;;;10.12;100.00
73016;BME280;61893;50.074;14.440;2022-10-30T03:35:47;99018.41;;;10.17;100.00
73016;BME280;61893;50.074;14.440;2022-10-30T03:38:19;99011.66;;;10.03;100.00
73016;BME280;61893;50.074;14.440;2022-10-30T03:40:50;99006.22;;;10.05;100.00
73016;BME280;61893;50.074;14.440;2022-10-30T03:43:41;99000.19;;;10.12;100.00
73016;BME280;61893;50.074;14.440;2022-10-30T03:46:22;99011.22;;;9.98;100.00
73016;BME280;61893;50.074;14.440;2022-10-30T03:48:51;99018.47;;;9.86;100.00
73016;BME280;61893;50.074;14.440;2022-10-30T03:51:22;99015.53;;;9.80;100.00
73016;BME280;61893;50.074;14.440;2022-10-30T03:53:49;99011.94;;;9.90;100.00
73016;BME280;61893;50.074;14.440;2022-10-30T03:56:37;99001.47;;;10.08;100.00
73016;BME280;61893;50.074;14.440;2022-10-30T03:59:22;99011.78;;;9.92;100.00
73016;BME280;61893;50.074;14.440;2022-10-30T04:01:47;99017.41;;;9.99;100.00
73016;BME280;61893;50.074;14.440;2022-10-30T04:04:15;99023.16;;;10.13;100.00
73016;BME280;61893;50.074;14.440;2022-10-30T04:06:41;99014.31;;;10.03;100.00
73016;BME280;61893;50.074;14.440;2022-10-30T04:09:12;99011.25;;;10.08;100.00
73016;BME280;61893;50.074;14.440;2022-10-30T04:11:47;99008.44;;;10.00;100.00
73016;BME280;61893;50.074;14.440;2022-10-30T04:14:13;99012.81;;;10.10;100.00
73016;BME280;61893;50.074;14.440;2022-10-30T04:16:39;99012.66;;;10.12;100.00
73016;BME280;61893;50.074;14.440;2022-10-30T04:19:07;99018.97;;;10.21;100.00
73016;BME280;61893;50.074;14.440;2022-10-30T04:21:41;99008.31;;;10.21;100.00
73016;BME280;61893;50.074;14.440;2022-10-30T04:24:08;99005.09;;;10.17;100.00
73016;BME280;61893;50.074;14.440;2022-10-30T04:26:34;98992.91;;;9.95;100.00
73016;BME280;61893;50.074;14.440;2022-10-30T04:28:59;98997.66;;;9.91;100.00
73016;BME280;61893;50.074;14.440;2022-10-30T04:31:25;98992.34;;;9.91;100.00
73016;BME280;61893;50.074;14.440;2022-10-30T04:33:56;98992.47;;;9.90;100.00
73016;BME280;61893;50.074;14.440;2022-10-30T04:44:59;98989.19;;;9.67;100.00
73016;BME280;61893;50.074;14.440;2022-10-30T04:47:28;98984.19;;;9.83;100.00
73016;BME280;61893;50.074;14.440;2022-10-30T04:49:54;98981.69;;;9.82;100.00
73016;BME280;61893;50.074;14.440;2022-10-30T04:52:20;98974.41;;;9.74;100.00
73016;BME280;61893;50.074;14.440;2022-10-30T04:54:46;98982.63;;;9.71;100.00
73016;BME280;61893;50.074;14.440;2022-10-30T04:57:11;98985.69;;;9.57;100.00
73016;BME280;61893;50.074;14.440;2022-10-30T04:59:37;98996.31;;;9.57;100.00
73016;BME280;61893;50.074;14.440;2022-10-30T05:02:03;98991.63;;;9.80;100.00
73016;BME280;61893;50.074;14.440;2022-10-30T05:04:28;98959.38;;;9.54;100.00
73016;BME280;61893;50.074;14.440;2022-10-30T05:06:54;98954.06;;;9.54;100.00
73016;BME280;61893;50.074;14.440;2022-10-30T05:09:19;99031.03;;;9.75;100.00
73016;BME280;61893;50.074;14.440;2022-10-30T05:11:45;99018.09;;;9.91;100.00
73016;BME280;61893;50.074;14.440;2022-10-30T05:14:11;98973.25;;;9.67;100.00
73016;BME280;61893;50.074;14.440;2022-10-30T05:16:37;98987.13;;;9.70;100.00
73016;BME280;61893;50.074;14.440;2022-10-30T05:19:03;99000.41;;;9.80;100.00
73016;BME280;61893;50.074;14.440;2022-10-30T05:21:29;98994.41;;;9.78;100.00
73016;BME280;61893;50.074;14.440;2022-10-30T05:23:54;98987.66;;;9.64;100.00
73016;BME280;61893;50.074;14.440;2022-10-30T05:26:20;98977.28;;;9.61;100.00
73016;BME280;61893;50.074;14.440;2022-10-30T05:28:55;98975.59;;;9.60;100.00
73016;BME280;61893;50.074;14.440;2022-10-30T05:31:21;98979.69;;;9.64;100.00
73016;BME280;61893;50.074;14.440;2022-10-30T05:34:01;98993.09;;;9.63;100.00
73016;BME280;61893;50.074;14.440;2022-10-30T05:36:29;98990.72;;;9.60;100.00
73016;BME280;61893;50.074;14.440;2022-10-30T05:39:02;98994.91;;;9.62;100.00
73016;BME280;61893;50.074;14.440;2022-10-30T05:41:28;98997.91;;;9.79;100.00
73016;BME280;61893;50.074;14.440;2022-10-30T05:43:54;98989.22;;;9.77;100.00
73016;BME280;61893;50.074;14.440;2022-10-30T05:46:26;98996.31;;;9.66;100.00
73016;BME280;61893;50.074;14.440;2022-10-30T05:48:52;98999.69;;;9.68;100.00
73016;BME280;61893;50.074;14.440;2022-10-30T05:51:17;99013.88;;;9.79;100.00
73016;BME280;61893;50.074;14.440;2022-10-30T05:53:46;99014.69;;;9.79;100.00
73016;BME280;61893;50.074;14.440;2022-10-30T05:56:15;99003.06;;;9.80;100.00
73016;BME280;61893;50.074;14.440;2022-10-30T05:58:41;99005.28;;;9.75;100.00
73016;BME280;61893;50.074;14.440;2022-10-30T06:01:23;99011.88;;;9.81;100.00
73016;BME280;61893;50.074;14.440;2022-10-30T06:03:54;99007.16;;;9.84;100.00
73016;BME280;61893;50.074;14.440;2022-10-30T06:06:22;99002.25;;;9.89;100.00
73016;BME280;61893;50.074;14.440;2022-10-30T06:09:13;99003.81;;;9.92;100.00
73016;BME280;61893;50.074;14.440;2022-10-30T06:11:39;99005.50;;;10.12;100.00
73016;BME280;61893;50.074;14.440;2022-10-30T06:14:07;99011.59;;;10.34;100.00
73016;BME280;61893;50.074;14.440;2022-10-30T06:16:43;99019.16;;;10.38;100.00
73016;BME280;61893;50.074;14.440;2022-10-30T06:19:27;99021.13;;;10.56;100.00
73016;BME280;61893;50.074;14.440;2022-10-30T06:22:19;99018.88;;;10.71;100.00
73016;BME280;61893;50.074;14.440;2022-10-30T06:25:10;99019.56;;;10.73;100.00
73016;BME280;61893;50.074;14.440;2022-10-30T06:27:53;99022.06;;;10.84;100.00
73016;BME280;61893;50.074;14.440;2022-10-30T06:30:19;99026.56;;;10.83;100.00
73016;BME280;61893;50.074;14.440;2022-10-30T06:33:02;99022.22;;;10.92;100.00
73016;BME280;61893;50.074;14.440;2022-10-30T06:35:47;99025.13;;;11.09;100.00
73016;BME280;61893;50.074;14.440;2022-10-30T06:38:28;99024.41;;;11.16;100.00
73016;BME280;61893;50.074;14.440;2022-10-30T06:40:54;99023.53;;;11.25;99.83
73016;BME280;61893;50.074;14.440;2022-10-30T06:43:23;99010.81;;;11.19;99.73
73016;BME280;61893;50.074;14.440;2022-10-30T06:46:12;99022.44;;;11.18;100.00
73016;BME280;61893;50.074;14.440;2022-10-30T06:49:02;99033.41;;;11.53;98.93
73016;BME280;61893;50.074;14.440;2022-10-30T06:51:42;99037.19;;;12.15;95.88
73016;BME280;61893;50.074;14.440;2022-10-30T06:55:36;99032.94;;;12.94;90.27
73016;BME280;61893;50.074;14.440;2022-10-30T07:20:00;99027.41;;;11.88;92.92
73016;BME280;61893;50.074;14.440;2022-10-30T07:28:55;99047.59;;;12.72;88.94
73016;BME280;61893;50.074;14.440;2022-10-30T07:40:28;99013.22;;;11.50;96.78
73016;BME280;61893;50.074;14.440;2022-10-30T07:46:17;99019.13;;;11.44;96.91
73016;BME280;61893;50.074;14.440;2022-10-30T07:55:06;99021.59;;;11.92;95.00
73016;BME280;61893;50.074;14.440;2022-10-30T08:09:55;99021.69;;;14.86;79.35
73016;BME280;61893;50.074;14.440;2022-10-30T08:15:44;99028.03;;;16.21;73.45
73016;BME280;61893;50.074;14.440;2022-10-30T08:18:55;99033.00;;;16.55;71.02
73016;BME280;61893;50.074;14.440;2022-10-30T08:21:49;99018.28;;;16.74;69.08
73016;BME280;61893;50.074;14.440;2022-10-30T08:43:08;99017.44;;;18.88;60.11
73016;BME280;61893;50.074;14.440;2022-10-30T08:45:49;99031.19;;;17.84;63.94
73016;BME280;61893;50.074;14.440;2022-10-30T09:00:32;99010.50;;;17.02;68.61
73016;BME280;61893;50.074;14.440;2022-10-30T09:11:48;99019.84;;;17.44;67.23
73016;BME280;61893;50.074;14.440;2022-10-30T09:14:45;99034.50;;;17.56;66.24
73016;BME280;61893;50.074;14.440;2022-10-30T09:17:31;99027.91;;;17.59;65.83
73016;BME280;61893;50.074;14.440;2022-10-30T09:26:08;99052.88;;;17.00;67.10
73016;BME280;61893;50.074;14.440;2022-10-30T09:28:51;99043.84;;;16.93;67.17
73016;BME280;61893;50.074;14.440;2022-10-30T09:35:00;99063.06;;;16.28;70.28
73016;BME280;61893;50.074;14.440;2022-10-30T10:04:53;99021.84;;;15.81;73.77
73016;BME280;61893;50.074;14.440;2022-10-30T10:10:51;99026.72;;;16.17;72.20
73016;BME280;61893;50.074;14.440;2022-10-30T10:54:59;98984.03;;;16.91;68.94
73016;BME280;61893;50.074;14.440;2022-10-30T11:00:32;98982.00;;;16.78;69.18
73016;BME280;61893;50.074;14.440;2022-10-30T11:06:37;98987.41;;;16.47;70.80
73016;BME280;61893;50.074;14.440;2022-10-30T11:12:24;98987.97;;;16.42;71.11
73016;BME280;61893;50.074;14.440;2022-10-30T11:29:31;98979.03;;;16.42;71.41
73016;BME280;61893;50.074;14.440;2022-10-30T11:52:11;98952.25;;;16.34;72.15
73016;BME280;61893;50.074;14.440;2022-10-30T11:58:34;98951.66;;;16.47;72.04
73016;BME280;61893;50.074;14.440;2022-10-30T12:06:42;98956.66;;;16.73;70.88
73016;BME280;61893;50.074;14.440;2022-10-30T12:15:36;98952.38;;;16.40;72.39
73016;BME280;61893;50.074;14.440;2022-10-30T12:30:32;98949.00;;;15.92;75.13
73016;BME280;61893;50.074;14.440;2022-10-30T12:36:22;98943.00;;;16.13;74.72
73016;BME280;61893;50.074;14.440;2022-10-30T12:42:16;98936.22;;;16.03;75.51
73016;BME280;61893;50.074;14.440;2022-10-30T13:06:20;98928.38;;;16.39;73.56
73016;BME280;61893;50.074;14.440;2022-10-30T13:51:23;98907.47;;;14.93;82.46
73016;BME280;61893;50.074;14.440;2022-10-30T14:20:24;98920.91;;;14.60;84.68
73016;BME280;61893;50.074;14.440;2022-10-30T15:17:39;98901.91;;;13.72;89.23
73016;BME280;61893;50.074;14.440;2022-10-30T15:20:37;98900.38;;;13.69;89.07
73016;BME280;61893;50.074;14.440;2022-10-30T15:23:24;98893.31;;;13.52;89.57
73016;BME280;61893;50.074;14.440;2022-10-30T15:26:21;98899.78;;;13.41;90.46
73016;BME280;61893;50.074;14.440;2022-10-30T15:32:16;98901.09;;;13.29;91.28
73016;BME280;61893;50.074;14.440;2022-10-30T15:43:44;98902.75;;;13.30;90.65
73016;BME280;61893;50.074;14.440;2022-10-30T15:49:52;98908.97;;;13.31;91.56
73016;BME280;61893;50.074;14.440;2022-10-30T17:02:27;98907.84;;;12.37;97.13
73016;BME280;61893;50.074;14.440;2022-10-30T17:30:45;98938.97;;;12.28;98.81
73016;BME280;61893;50.074;14.440;2022-10-30T18:06:58;98966.69;;;11.72;99.38
73016;BME280;61893;50.074;14.440;2022-10-30T18:26:53;98964.00;;;11.44;99.81
73016;BME280;61893;50.074;14.440;2022-10-30T19:06:53;98949.34;;;10.93;100.00
73016;BME280;61893;50.074;14.440;2022-10-30T19:59:45;98960.03;;;10.64;100.00
73016;BME280;61893;50.074;14.440;2022-10-30T20:08:22;98962.41;;;10.67;100.00
73016;BME280;61893;50.074;14.440;2022-10-30T20:32:49;98959.75;;;10.19;100.00
73016;BME280;61893;50.074;14.440;2022-10-30T20:39:04;98968.13;;;10.04;100.00
73016;BME280;61893;50.074;14.440;2022-10-30T20:47:08;98961.81;;;9.96;100.00
73016;BME280;61893;50.074;14.440;2022-10-30T20:49:51;98965.63;;;9.93;100.00
73016;BME280;61893;50.074;14.440;2022-10-30T20:56:09;98961.03;;;10.14;100.00
73016;BME280;61893;50.074;14.440;2022-10-30T21:02:02;98970.38;;;10.19;100.00
73016;BME280;61893;50.074;14.440;2022-10-30T21:21:56;98963.84;;;10.13;100.00
73016;BME280;61893;50.074;14.440;2022-10-30T21:24:43;98961.81;;;9.96;100.00
73016;BME280;61893;50.074;14.440;2022-10-30T21:30:40;98962.69;;;9.96;100.00
73016;BME280;61893;50.074;14.440;2022-10-30T22:28:31;98961.22;;;8.92;100.00
73016;BME280;61893;50.074;14.440;2022-10-30T22:40:21;98960.59;;;8.78;100.00
73016;BME280;61893;50.074;14.440;2022-10-30T22:49:06;98967.75;;;8.88;100.00
73016;BME280;61893;50.074;14.440;2022-10-30T23:04:13;98973.78;;;9.20;100.00
73016;BME280;61893;50.074;14.440;2022-10-30T23:06:42;98971.28;;;9.19;100.00
73016;BME280;61893;50.074;14.440;2022-10-30T23:09:14;98974.97;;;9.07;100.00
73016;BME280;61893;50.074;14.440;2022-10-30T23:11:41;98972.38;;;9.16;100.00
73016;BME280;61893;50.074;14.440;2022-10-30T23:14:21;98975.41;;;9.12;100.00
73016;BME280;61893;50.074;14.440;2022-10-30T23:20:13;98975.66;;;8.99;100.00
73016;BME280;61893;50.074;14.440;2022-10-30T23:28:18;98982.06;;;8.54;100.00
73016;BME280;61893;50.074;14.440;2022-10-30T23:30:45;98982.06;;;8.54;100.00
73016;BME280;61893;50.074;14.440;2022-10-30T23:33:11;98982.00;;;8.45;100.00
73016;BME280;61893;50.074;14.440;2022-10-30T23:35:37;98975.44;;;8.49;100.00
73016;BME280;61893;50.074;14.440;2022-10-30T23:38:04;98985.22;;;8.48;100.00
73016;BME280;61893;50.074;14.440;2022-10-30T23:40:30;98983.28;;;8.50;100.00
73016;BME280;61893;50.074;14.440;2022-10-30T23:42:56;98987.28;;;8.45;100.00
73016;BME280;61893;50.074;14.440;2022-10-30T23:45:22;98984.97;;;8.51;100.00
73016;BME280;61893;50.074;14.440;2022-10-30T23:47:48;98987.50;;;8.53;100.00
73016;BME280;61893;50.074;14.440;2022-10-30T23:50:15;98988.91;;;8.57;100.00
73016;BME280;61893;50.074;14.440;2022-10-30T23:52:40;98989.91;;;8.56;100.00
73016;BME280;61893;50.074;14.440;2022-10-30T23:55:08;98983.97;;;8.52;100.00
73016;BME280;61893;50.074;14.440;2022-10-30T23:57:35;98984.97;;;8.51;100.00
